createdAt,value
2022-07-28T00:02:18.908Z,55.00
2022-07-28T00:04:45.416Z,55.00
2022-07-28T00:07:11.884Z,55.30
2022-07-28T00:09:38.359Z,55.50
2022-07-28T00:12:04.821Z,56.30
2022-07-28T00:14:31.298Z,56.00
2022-07-28T00:16:57.766Z,56.10
2022-07-28T00:19:24.240Z,56.30
2022-07-28T00:21:50.722Z,56.50
2022-07-28T00:24:17.430Z,56.40
2022-07-28T00:26:46.544Z,56.50
2022-07-28T00:29:13.301Z,56.40
2022-07-28T00:31:39.798Z,56.40
2022-07-28T00:34:06.442Z,56.40
2022-07-28T00:36:32.904Z,56.50
2022-07-28T00:38:59.392Z,56.70
2022-07-28T00:41:26.939Z,56.90
2022-07-28T00:43:53.404Z,56.80
2022-07-28T00:46:19.930Z,56.90
2022-07-28T00:48:46.499Z,57.10
2022-07-28T00:51:12.980Z,57.20
2022-07-28T00:53:39.448Z,57.40
2022-07-28T00:56:06.934Z,57.40
2022-07-28T00:58:33.683Z,57.50
2022-07-28T01:01:00.158Z,57.60
2022-07-28T01:03:26.625Z,57.90
2022-07-28T01:05:53.083Z,57.90
2022-07-28T01:08:19.554Z,58.00
2022-07-28T01:10:46.026Z,58.10
2022-07-28T01:13:12.534Z,58.20
2022-07-28T01:15:39.071Z,58.20
2022-07-28T01:18:05.539Z,58.40
2022-07-28T01:20:32.001Z,58.50
2022-07-28T01:22:58.450Z,58.40
2022-07-28T01:25:24.928Z,58.50
2022-07-28T01:27:51.397Z,58.60
2022-07-28T01:30:17.893Z,58.60
2022-07-28T01:32:44.344Z,58.60
2022-07-28T01:35:10.826Z,58.60
2022-07-28T01:37:37.278Z,58.60
2022-07-28T01:40:03.776Z,58.40
2022-07-28T01:42:30.243Z,58.40
2022-07-28T01:44:56.717Z,58.30
2022-07-28T01:47:23.180Z,58.20
2022-07-28T01:49:50.668Z,58.20
2022-07-28T01:52:17.134Z,58.10
2022-07-28T01:54:43.597Z,58.10
2022-07-28T01:57:10.073Z,58.20
2022-07-28T01:59:36.722Z,58.20
2022-07-28T02:02:03.272Z,58.10
2022-07-28T02:04:29.817Z,58.30
2022-07-28T02:06:56.306Z,58.30
2022-07-28T02:09:22.767Z,58.40
2022-07-28T02:11:49.264Z,58.50
2022-07-28T02:14:15.997Z,58.50
2022-07-28T02:16:42.832Z,58.50
2022-07-28T02:19:09.286Z,58.60
2022-07-28T02:21:36.344Z,58.60
2022-07-28T02:24:02.906Z,58.80
2022-07-28T02:26:29.378Z,58.80
2022-07-28T02:28:55.841Z,58.90
2022-07-28T02:31:22.414Z,58.90
2022-07-28T02:34:00.429Z,58.80
2022-07-28T02:36:28.811Z,58.90
2022-07-28T02:38:55.269Z,59.00
2022-07-28T02:41:21.747Z,59.00
2022-07-28T02:43:49.709Z,58.90
2022-07-28T02:46:17.204Z,58.90
2022-07-28T02:48:43.734Z,58.90
2022-07-28T02:51:10.235Z,58.80
2022-07-28T02:53:36.688Z,58.80
2022-07-28T02:56:03.162Z,58.80
2022-07-28T02:58:29.621Z,58.80
2022-07-28T03:00:56.091Z,58.90
2022-07-28T03:03:22.563Z,58.90
2022-07-28T03:05:49.025Z,58.90
2022-07-28T03:08:15.494Z,59.10
2022-07-28T03:10:41.966Z,59.10
2022-07-28T03:13:08.437Z,59.10
2022-07-28T03:15:34.900Z,59.20
2022-07-28T03:18:01.373Z,59.20
2022-07-28T03:20:27.846Z,59.20
2022-07-28T03:22:54.325Z,59.20
2022-07-28T03:25:20.807Z,59.10
2022-07-28T03:27:47.276Z,59.90
2022-07-28T03:30:13.742Z,59.20
2022-07-28T03:32:40.336Z,59.30
2022-07-28T03:35:06.788Z,59.30
2022-07-28T03:37:33.269Z,59.50
2022-07-28T03:39:59.740Z,59.50
2022-07-28T03:42:26.223Z,59.50
2022-07-28T03:44:52.685Z,59.50
2022-07-28T03:47:19.149Z,59.40
2022-07-28T03:49:45.610Z,59.50
2022-07-28T03:52:12.084Z,59.40
2022-07-28T03:54:38.555Z,59.50
2022-07-28T03:57:05.042Z,59.60
2022-07-28T03:59:31.506Z,59.60
2022-07-28T04:01:57.993Z,59.70
2022-07-28T04:04:24.777Z,59.70
2022-07-28T04:06:51.238Z,59.70
2022-07-28T04:09:17.715Z,59.60
2022-07-28T04:11:44.182Z,59.80
2022-07-28T04:14:16.232Z,59.70
2022-07-28T04:16:43.295Z,59.70
2022-07-28T04:19:09.805Z,59.60
2022-07-28T04:21:36.267Z,59.60
2022-07-28T04:24:02.747Z,59.60
2022-07-28T04:26:29.208Z,59.60
2022-07-28T04:28:55.667Z,59.60
2022-07-28T04:31:22.201Z,59.60
2022-07-28T04:33:48.725Z,59.60
2022-07-28T04:36:15.190Z,59.60
2022-07-28T04:38:41.667Z,59.50
2022-07-28T04:41:08.140Z,59.50
2022-07-28T04:43:34.604Z,59.40
2022-07-28T04:46:01.148Z,59.40
2022-07-28T04:48:27.660Z,59.50
2022-07-28T04:50:54.118Z,59.40
2022-07-28T04:53:20.597Z,59.40
2022-07-28T04:55:47.061Z,59.50
2022-07-28T04:58:15.548Z,59.40
2022-07-28T05:00:43.176Z,59.40
2022-07-28T05:03:09.669Z,59.30
2022-07-28T05:05:36.133Z,59.30
2022-07-28T05:08:02.618Z,59.20
2022-07-28T05:10:29.085Z,59.20
2022-07-28T05:12:55.556Z,59.30
2022-07-28T05:15:22.118Z,59.30
2022-07-28T05:17:49.413Z,59.30
2022-07-28T05:20:15.874Z,59.30
2022-07-28T05:22:42.360Z,59.30
2022-07-28T05:25:08.839Z,59.40
2022-07-28T05:27:35.308Z,59.30
2022-07-28T05:30:01.812Z,59.30
2022-07-28T05:32:28.299Z,59.30
2022-07-28T05:34:54.892Z,59.40
2022-07-28T05:37:21.358Z,59.40
2022-07-28T05:39:47.838Z,59.40
2022-07-28T05:42:14.298Z,59.40
2022-07-28T05:44:40.807Z,59.40
2022-07-28T05:47:07.274Z,59.40
2022-07-28T05:49:33.777Z,59.50
2022-07-28T05:52:00.252Z,59.50
2022-07-28T05:54:26.722Z,59.70
2022-07-28T05:56:53.186Z,59.80
2022-07-28T05:59:19.658Z,59.80
2022-07-28T06:01:46.273Z,59.90
2022-07-28T06:04:28.934Z,59.90
2022-07-28T06:06:55.971Z,59.90
2022-07-28T06:09:22.450Z,59.80
2022-07-28T06:11:48.912Z,59.90
2022-07-28T06:14:15.882Z,59.80
2022-07-28T06:16:42.526Z,59.80
2022-07-28T06:19:09.058Z,59.70
2022-07-28T06:21:35.522Z,59.70
2022-07-28T06:24:02.002Z,59.60
2022-07-28T06:26:28.461Z,59.50
2022-07-28T06:28:54.924Z,59.50
2022-07-28T06:31:21.443Z,59.50
2022-07-28T06:33:47.948Z,59.30
2022-07-28T06:36:14.410Z,59.40
2022-07-28T06:38:40.881Z,59.30
2022-07-28T06:41:07.345Z,59.20
2022-07-28T06:43:38.295Z,59.10
2022-07-28T06:46:05.396Z,59.00
2022-07-28T06:48:31.866Z,58.90
2022-07-28T06:50:58.333Z,58.80
2022-07-28T06:53:24.824Z,58.70
2022-07-28T06:55:54.586Z,58.60
2022-07-28T06:58:21.051Z,58.40
2022-07-28T07:00:47.614Z,58.30
2022-07-28T07:03:14.122Z,58.10
2022-07-28T07:05:40.588Z,58.00
2022-07-28T07:08:07.048Z,57.80
2022-07-28T07:10:33.520Z,57.60
2022-07-28T07:12:59.990Z,57.20
2022-07-28T07:15:26.465Z,57.00
2022-07-28T07:17:53.231Z,56.70
2022-07-28T07:20:19.738Z,56.50
2022-07-28T07:22:46.217Z,56.30
2022-07-28T07:25:12.691Z,56.10
2022-07-28T07:27:39.154Z,56.00
2022-07-28T07:30:05.630Z,55.90
2022-07-28T07:32:32.092Z,55.70
2022-07-28T07:34:58.572Z,55.40
2022-07-28T07:37:25.037Z,55.20
2022-07-28T07:39:51.515Z,54.90
2022-07-28T07:42:17.977Z,54.40
2022-07-28T07:44:50.234Z,54.20
2022-07-28T07:47:16.952Z,53.90
2022-07-28T07:49:45.883Z,53.40
2022-07-28T07:52:12.812Z,53.00
2022-07-28T07:54:39.284Z,52.70
2022-07-28T07:57:05.756Z,52.30
2022-07-28T07:59:32.233Z,51.70
2022-07-28T08:01:58.740Z,52.10
2022-07-28T08:04:25.549Z,51.40
2022-07-28T08:06:52.107Z,51.20
2022-07-28T08:09:18.589Z,51.00
2022-07-28T08:11:45.063Z,50.30
2022-07-28T08:14:11.738Z,50.20
2022-07-28T08:16:38.480Z,49.20
2022-07-28T08:19:04.962Z,48.50
2022-07-28T08:21:32.658Z,48.40
2022-07-28T08:23:59.124Z,48.70
2022-07-28T08:26:25.610Z,48.20
2022-07-28T08:28:52.073Z,47.10
2022-07-28T08:31:18.582Z,47.10
2022-07-28T08:33:53.482Z,46.60
2022-07-28T08:36:21.002Z,46.80
2022-07-28T08:38:47.464Z,46.80
2022-07-28T08:41:13.968Z,46.00
2022-07-28T08:43:40.464Z,45.80
2022-07-28T08:46:07.025Z,45.40
2022-07-28T08:48:33.678Z,45.70
2022-07-28T08:51:00.176Z,45.90
2022-07-28T08:53:26.638Z,45.70
2022-07-28T08:55:53.123Z,45.50
2022-07-28T08:58:19.592Z,45.00
2022-07-28T09:00:46.068Z,44.70
2022-07-28T09:03:12.615Z,44.30
2022-07-28T09:05:39.134Z,44.20
2022-07-28T09:08:05.621Z,43.90
2022-07-28T09:10:32.098Z,44.10
2022-07-28T09:12:58.591Z,43.80
2022-07-28T09:15:25.057Z,43.40
2022-07-28T09:17:51.538Z,43.30
2022-07-28T09:20:18.012Z,42.50
2022-07-28T09:22:44.488Z,42.30
2022-07-28T09:25:10.955Z,42.00
2022-07-28T09:27:37.433Z,41.90
2022-07-28T09:30:03.888Z,41.80
2022-07-28T09:32:30.419Z,41.70
2022-07-28T09:34:57.213Z,41.00
2022-07-28T09:37:27.342Z,40.80
2022-07-28T09:39:54.501Z,40.80
2022-07-28T09:42:20.974Z,40.20
2022-07-28T09:45:05.909Z,40.00
2022-07-28T09:47:34.126Z,40.10
2022-07-28T09:50:00.733Z,39.30
2022-07-28T09:52:27.258Z,39.50
2022-07-28T09:54:53.725Z,39.70
2022-07-28T09:57:20.213Z,39.70
2022-07-28T09:59:50.493Z,40.50
2022-07-28T10:02:18.684Z,40.20
2022-07-28T10:04:45.807Z,39.70
2022-07-28T10:07:12.293Z,39.30
2022-07-28T10:09:38.773Z,38.90
2022-07-28T10:12:05.237Z,38.80
2022-07-28T10:14:32.531Z,38.70
2022-07-28T10:17:01.670Z,38.30
2022-07-28T10:19:32.190Z,38.40
2022-07-28T10:21:58.654Z,38.00
2022-07-28T10:24:25.134Z,38.30
2022-07-28T10:26:51.605Z,38.10
2022-07-28T10:29:18.085Z,38.00
2022-07-28T10:31:44.545Z,38.10
2022-07-28T10:34:15.883Z,37.20
2022-07-28T10:36:42.843Z,37.60
2022-07-28T10:39:09.313Z,37.60
2022-07-28T10:41:35.775Z,37.40
2022-07-28T10:44:02.246Z,37.10
2022-07-28T10:46:29.306Z,36.90
2022-07-28T10:48:55.864Z,36.40
2022-07-28T10:51:22.512Z,36.60
2022-07-28T10:53:54.876Z,36.90
2022-07-28T10:56:21.354Z,36.70
2022-07-28T10:58:47.845Z,36.30
2022-07-28T11:01:32.594Z,36.10
2022-07-28T11:04:00.904Z,34.60
2022-07-28T11:06:27.426Z,35.00
2022-07-28T11:08:53.901Z,35.20
2022-07-28T11:11:20.364Z,35.00
2022-07-28T11:13:46.832Z,34.80
2022-07-28T11:16:17.897Z,35.10
2022-07-28T11:18:44.376Z,35.20
2022-07-28T11:21:11.443Z,34.80
2022-07-28T11:23:46.881Z,35.00
2022-07-28T11:26:14.275Z,35.00
2022-07-28T11:28:41.933Z,34.80
2022-07-28T11:31:08.437Z,34.90
2022-07-28T11:33:34.997Z,34.00
2022-07-28T11:36:12.579Z,33.40
2022-07-28T11:38:39.042Z,33.80
2022-07-28T11:41:05.524Z,33.50
2022-07-28T11:43:36.290Z,33.70
2022-07-28T11:46:04.775Z,33.50
2022-07-28T11:48:37.152Z,33.40
2022-07-28T11:51:03.682Z,32.90
2022-07-28T11:53:30.154Z,32.90
2022-07-28T11:56:02.704Z,32.70
2022-07-28T11:58:29.727Z,33.00
2022-07-28T12:00:56.210Z,33.40
2022-07-28T12:03:26.134Z,33.30
2022-07-28T12:06:05.018Z,33.00
2022-07-28T12:08:31.499Z,33.10
2022-07-28T12:10:57.962Z,33.00
2022-07-28T12:13:24.435Z,32.50
2022-07-28T12:15:50.902Z,31.90
2022-07-28T12:18:17.377Z,31.50
2022-07-28T12:20:43.851Z,32.10
2022-07-28T12:23:15.164Z,32.10
2022-07-28T12:25:42.143Z,32.40
2022-07-28T12:28:08.980Z,32.30
2022-07-28T12:30:35.522Z,31.90
2022-07-28T12:33:02.010Z,31.60
2022-07-28T12:35:28.481Z,31.80
2022-07-28T12:37:54.955Z,30.90
2022-07-28T12:40:27.586Z,31.10
2022-07-28T12:42:54.201Z,31.10
2022-07-28T12:45:20.674Z,31.10
2022-07-28T12:47:47.145Z,31.00
2022-07-28T12:50:13.612Z,31.40
2022-07-28T12:52:40.091Z,31.60
2022-07-28T12:55:06.547Z,30.80
2022-07-28T12:57:33.052Z,30.90
2022-07-28T12:59:59.515Z,31.10
2022-07-28T13:02:26.041Z,31.00
2022-07-28T13:04:52.542Z,30.70
2022-07-28T13:07:19.005Z,30.60
2022-07-28T13:09:47.151Z,30.80
2022-07-28T13:12:14.553Z,30.70
2022-07-28T13:14:41.028Z,30.70
2022-07-28T13:17:07.486Z,30.70
2022-07-28T13:19:33.962Z,30.80
2022-07-28T13:22:04.057Z,30.80
2022-07-28T13:24:33.457Z,30.90
2022-07-28T13:26:59.923Z,31.00
2022-07-28T13:29:26.392Z,30.50
2022-07-28T13:31:52.896Z,30.80
2022-07-28T13:34:19.508Z,30.40
2022-07-28T13:36:45.964Z,29.70
2022-07-28T13:39:12.437Z,29.80
2022-07-28T13:41:57.784Z,30.00
2022-07-28T13:44:25.268Z,30.00
2022-07-28T13:46:51.743Z,30.10
2022-07-28T13:49:18.441Z,30.00
2022-07-28T13:51:48.069Z,30.00
2022-07-28T13:54:14.856Z,30.00
2022-07-28T13:56:41.484Z,30.00
2022-07-28T13:59:08.746Z,29.50
2022-07-28T14:01:35.407Z,29.60
2022-07-28T14:04:01.876Z,29.90
2022-07-28T14:06:28.349Z,29.70
2022-07-28T14:08:54.824Z,29.80
2022-07-28T14:11:23.020Z,29.70
2022-07-28T14:13:49.492Z,29.60
2022-07-28T14:16:16.062Z,29.80
2022-07-28T14:18:42.602Z,29.70
2022-07-28T14:21:09.086Z,30.00
2022-07-28T14:23:35.554Z,29.90
2022-07-28T14:26:25.216Z,30.00
2022-07-28T14:28:48.469Z,29.90
2022-07-28T14:31:15.019Z,29.90
2022-07-28T14:33:46.377Z,30.00
2022-07-28T14:36:14.929Z,30.00
2022-07-28T14:38:56.728Z,30.30
2022-07-28T14:41:23.237Z,30.70
2022-07-28T14:43:49.692Z,30.80
2022-07-28T14:46:21.104Z,30.80
2022-07-28T14:48:48.497Z,30.70
2022-07-28T14:51:15.030Z,30.20
2022-07-28T14:53:43.415Z,30.20
2022-07-28T14:56:16.452Z,30.30
2022-07-28T14:58:42.931Z,30.00
2022-07-28T15:01:09.407Z,30.00
2022-07-28T15:03:36.619Z,29.70
2022-07-28T15:06:03.218Z,30.00
2022-07-28T15:08:29.725Z,30.10
2022-07-28T15:10:56.215Z,30.10
2022-07-28T15:13:22.674Z,30.00
2022-07-28T15:15:49.181Z,30.00
2022-07-28T15:18:15.661Z,30.30
2022-07-28T15:20:42.134Z,30.30
2022-07-28T15:23:08.596Z,30.30
2022-07-28T15:25:35.106Z,30.60
2022-07-28T15:28:01.572Z,30.70
2022-07-28T15:30:28.047Z,30.60
2022-07-28T15:32:56.779Z,30.70
2022-07-28T15:35:23.865Z,30.70
2022-07-28T15:37:50.327Z,30.80
2022-07-28T15:40:16.812Z,30.80
2022-07-28T15:42:43.287Z,30.50
2022-07-28T15:45:09.753Z,30.20
2022-07-28T15:47:36.222Z,30.40
2022-07-28T15:50:02.707Z,30.50
2022-07-28T15:52:29.188Z,30.60
2022-07-28T15:54:55.790Z,30.40
2022-07-28T15:57:22.260Z,30.50
2022-07-28T15:59:50.839Z,30.50
2022-07-28T16:02:18.015Z,30.30
2022-07-28T16:04:53.344Z,30.30
2022-07-28T16:07:22.405Z,30.40
2022-07-28T16:09:49.017Z,30.20
2022-07-28T16:12:15.490Z,30.40
2022-07-28T16:14:42.226Z,30.40
2022-07-28T16:17:08.809Z,30.60
2022-07-28T16:19:48.352Z,31.00
2022-07-28T16:22:15.285Z,30.90
2022-07-28T16:24:41.748Z,30.90
2022-07-28T16:27:08.230Z,30.70
2022-07-28T16:29:34.700Z,30.50
2022-07-28T16:32:01.181Z,30.70
2022-07-28T16:34:27.644Z,31.00
2022-07-28T16:36:54.118Z,31.30
2022-07-28T16:39:20.583Z,31.50
2022-07-28T16:41:48.356Z,31.70
2022-07-28T16:44:15.405Z,31.80
2022-07-28T16:46:42.312Z,31.80
2022-07-28T16:49:08.905Z,31.90
2022-07-28T16:51:35.405Z,32.00
2022-07-28T16:54:01.867Z,32.10
2022-07-28T16:56:28.398Z,32.20
2022-07-28T16:58:54.859Z,32.90
2022-07-28T17:01:21.386Z,32.30
2022-07-28T17:03:47.901Z,32.30
2022-07-28T17:06:14.372Z,32.40
2022-07-28T17:08:40.835Z,32.50
2022-07-28T17:11:07.323Z,32.60
2022-07-28T17:13:33.791Z,32.60
2022-07-28T17:16:00.316Z,32.80
2022-07-28T17:18:26.869Z,32.90
2022-07-28T17:20:53.338Z,33.10
2022-07-28T17:23:19.841Z,33.00
2022-07-28T17:26:20.420Z,33.00
2022-07-28T17:28:32.779Z,33.10
2022-07-28T17:30:59.424Z,33.30
2022-07-28T17:33:25.961Z,33.40
2022-07-28T17:35:52.425Z,33.40
2022-07-28T17:38:18.894Z,33.50
2022-07-28T17:40:45.363Z,33.60
2022-07-28T17:43:11.862Z,33.60
2022-07-28T17:45:38.332Z,33.70
2022-07-28T17:48:04.806Z,33.60
2022-07-28T17:50:31.283Z,33.90
2022-07-28T17:52:57.764Z,34.00
2022-07-28T17:55:24.338Z,34.00
2022-07-28T17:57:50.831Z,34.10
2022-07-28T18:00:17.350Z,34.20
2022-07-28T18:02:44.800Z,34.40
2022-07-28T18:05:11.381Z,34.40
2022-07-28T18:07:51.185Z,34.30
2022-07-28T18:10:20.243Z,34.50
2022-07-28T18:12:51.689Z,34.60
2022-07-28T18:15:18.163Z,34.60
2022-07-28T18:17:55.111Z,34.70
2022-07-28T18:20:22.272Z,34.80
2022-07-28T18:22:48.756Z,34.90
2022-07-28T18:25:15.219Z,34.90
2022-07-28T18:27:42.560Z,35.10
2022-07-28T18:30:09.076Z,35.10
2022-07-28T18:32:35.551Z,35.20
2022-07-28T18:35:02.011Z,35.30
2022-07-28T18:37:31.024Z,35.30
2022-07-28T18:39:57.624Z,35.40
2022-07-28T18:42:24.132Z,35.50
2022-07-28T18:44:50.686Z,35.50
2022-07-28T18:47:17.162Z,35.60
2022-07-28T18:49:43.667Z,35.60
2022-07-28T18:52:10.140Z,35.70
2022-07-28T18:54:36.619Z,35.70
2022-07-28T18:57:03.082Z,35.90
2022-07-28T18:59:29.553Z,36.00
2022-07-28T19:01:56.045Z,36.00
2022-07-28T19:04:22.673Z,36.20
2022-07-28T19:06:49.135Z,36.20
2022-07-28T19:09:15.610Z,36.40
2022-07-28T19:11:46.016Z,36.50
2022-07-28T19:14:13.417Z,36.70
2022-07-28T19:16:40.098Z,36.90
2022-07-28T19:19:06.592Z,37.10
2022-07-28T19:21:33.045Z,37.20
2022-07-28T19:23:59.544Z,37.30
2022-07-28T19:26:26.017Z,37.60
2022-07-28T19:28:52.487Z,37.80
2022-07-28T19:31:18.981Z,37.90
2022-07-28T19:33:45.493Z,37.90
2022-07-28T19:36:11.976Z,38.00
2022-07-28T19:38:38.452Z,38.10
2022-07-28T19:41:04.928Z,38.30
2022-07-28T19:43:31.396Z,38.70
2022-07-28T19:45:57.900Z,38.80
2022-07-28T19:48:24.432Z,38.90
2022-07-28T19:50:51.295Z,39.10
2022-07-28T19:53:17.847Z,39.50
2022-07-28T19:55:48.925Z,39.50
2022-07-28T19:58:17.302Z,39.50
2022-07-28T20:00:43.759Z,39.80
2022-07-28T20:03:59.906Z,39.90
2022-07-28T20:05:56.996Z,40.10
2022-07-28T20:08:23.466Z,40.20
2022-07-28T20:10:49.952Z,40.30
2022-07-28T20:13:16.427Z,40.50
2022-07-28T20:15:42.886Z,40.70
2022-07-28T20:18:09.372Z,40.90
2022-07-28T20:20:35.828Z,40.90
2022-07-28T20:23:02.313Z,41.20
2022-07-28T20:25:28.769Z,41.60
2022-07-28T20:27:55.233Z,41.60
2022-07-28T20:30:21.791Z,41.80
2022-07-28T20:32:48.356Z,42.00
2022-07-28T20:35:15.497Z,42.00
2022-07-28T20:37:41.970Z,42.00
2022-07-28T20:40:08.451Z,41.90
2022-07-28T20:42:34.915Z,42.10
2022-07-28T20:45:01.393Z,42.30
2022-07-28T20:47:28.080Z,42.80
2022-07-28T20:49:54.730Z,42.90
2022-07-28T20:52:21.189Z,43.10
2022-07-28T20:54:53.653Z,43.10
2022-07-28T20:57:20.929Z,43.40
2022-07-28T20:59:47.401Z,43.60
2022-07-28T21:02:13.933Z,43.80
2022-07-28T21:04:40.454Z,44.10
2022-07-28T21:07:06.909Z,44.50
2022-07-28T21:09:33.382Z,44.60
2022-07-28T21:11:59.837Z,44.60
2022-07-28T21:14:26.310Z,44.60
2022-07-28T21:16:52.789Z,44.80
2022-07-28T21:19:19.380Z,44.90
2022-07-28T21:21:45.844Z,45.00
2022-07-28T21:24:12.508Z,45.20
2022-07-28T21:26:39.088Z,45.20
2022-07-28T21:29:05.565Z,45.40
2022-07-28T21:31:32.023Z,45.40
2022-07-28T21:33:58.503Z,45.30
2022-07-28T21:36:24.969Z,45.60
2022-07-28T21:38:51.473Z,45.80
2022-07-28T21:41:17.954Z,45.90
2022-07-28T21:43:44.416Z,46.10
2022-07-28T21:46:11.031Z,46.30
2022-07-28T21:48:37.570Z,46.50
2022-07-28T21:51:04.091Z,46.80
2022-07-28T21:53:42.165Z,46.90
2022-07-28T21:56:08.644Z,47.10
2022-07-28T21:58:35.117Z,47.40
2022-07-28T22:01:02.886Z,47.50
2022-07-28T22:03:29.543Z,47.50
2022-07-28T22:05:56.021Z,47.50
2022-07-28T22:08:22.490Z,48.00
2022-07-28T22:10:48.964Z,48.10
2022-07-28T22:13:15.427Z,48.20
2022-07-28T22:15:41.899Z,48.10
2022-07-28T22:18:11.024Z,48.10
2022-07-28T22:20:39.946Z,48.00
2022-07-28T22:23:19.914Z,47.90
2022-07-28T22:25:54.128Z,48.10
2022-07-28T22:28:29.901Z,48.40
2022-07-28T22:30:57.023Z,48.40
2022-07-28T22:33:23.489Z,48.60
2022-07-28T22:35:49.964Z,48.70
2022-07-28T22:38:16.452Z,48.80
2022-07-28T22:40:42.930Z,48.70
2022-07-28T22:43:09.394Z,48.80
2022-07-28T22:45:50.872Z,48.70
2022-07-28T22:48:17.919Z,48.60
2022-07-28T22:50:44.394Z,48.80
2022-07-28T22:53:10.861Z,49.10
2022-07-28T22:55:37.336Z,49.50
2022-07-28T22:58:05.766Z,49.40
2022-07-28T23:00:32.441Z,49.70
2022-07-28T23:03:00.366Z,49.60
2022-07-28T23:05:28.540Z,49.60
2022-07-28T23:07:57.646Z,49.70
2022-07-28T23:10:25.474Z,50.10
2022-07-28T23:12:51.938Z,50.20
2022-07-28T23:15:18.479Z,50.40
2022-07-28T23:17:44.947Z,50.40
2022-07-28T23:20:11.425Z,50.40
2022-07-28T23:22:37.901Z,50.50
2022-07-28T23:25:04.374Z,50.40
2022-07-28T23:27:30.855Z,50.70
2022-07-28T23:29:57.321Z,50.70
2022-07-28T23:32:23.802Z,50.80
2022-07-28T23:34:50.277Z,50.80
2022-07-28T23:37:16.756Z,50.70
2022-07-28T23:39:43.221Z,51.40
2022-07-28T23:42:09.707Z,50.70
2022-07-28T23:44:37.866Z,50.90
2022-07-28T23:47:04.445Z,51.10
2022-07-28T23:49:30.980Z,51.30
2022-07-28T23:51:57.456Z,51.50
2022-07-28T23:54:23.940Z,51.60
2022-07-28T23:56:50.408Z,51.70
2022-07-28T23:59:16.876Z,52.30
